sensor_id;sensor_type;location;lat;lon;timestamp;temperature;humidity
6690;DHT22;3382;51.576;8.076;2023-03-01T00:02:16;0.60;99.90
6690;DHT22;3382;51.576;8.076;2023-03-01T00:04:41;0.60;99.90
6690;DHT22;3382;51.576;8.076;2023-03-01T00:07:07;0.50;99.90
6690;DHT22;3382;51.576;8.076;2023-03-01T00:09:33;0.50;99.90
6690;DHT22;3382;51.576;8.076;2023-03-01T00:11:58;0.50;99.90
6690;DHT22;3382;51.576;8.076;2023-03-01T00:14:24;-0.10;99.90
6690;DHT22;3382;51.576;8.076;2023-03-01T00:16:49;0.40;99.90
6690;DHT22;3382;51.576;8.076;2023-03-01T00:19:19;0.30;99.90
6690;DHT22;3382;51.576;8.076;2023-03-01T00:21:45;0.80;99.90
6690;DHT22;3382;51.576;8.076;2023-03-01T00:24:11;0.30;99.90
6690;DHT22;3382;51.576;8.076;2023-03-01T00:26:37;0.20;99.90
6690;DHT22;3382;51.576;8.076;2023-03-01T00:29:02;0.20;99.90
6690;DHT22;3382;51.576;8.076;2023-03-01T00:31:30;0.20;99.90
6690;DHT22;3382;51.576;8.076;2023-03-01T00:33:59;0.10;99.90
6690;DHT22;3382;51.576;8.076;2023-03-01T00:36:27;0.70;99.90
6690;DHT22;3382;51.576;8.076;2023-03-01T00:38:54;0.00;99.90
6690;DHT22;3382;51.576;8.076;2023-03-01T00:41:20;0.10;99.90
6690;DHT22;3382;51.576;8.076;2023-03-01T00:43:48;0.00;99.90
6690;DHT22;3382;51.576;8.076;2023-03-01T00:46:17;-0.10;99.90
6690;DHT22;3382;51.576;8.076;2023-03-01T00:48:43;-0.10;99.90
6690;DHT22;3382;51.576;8.076;2023-03-01T00:51:18;0.10;99.90
6690;DHT22;3382;51.576;8.076;2023-03-01T00:53:44;-0.10;99.90
6690;DHT22;3382;51.576;8.076;2023-03-01T00:56:12;-0.20;99.90
6690;DHT22;3382;51.576;8.076;2023-03-01T00:58:37;-0.20;99.90
6690;DHT22;3382;51.576;8.076;2023-03-01T01:01:18;-0.30;99.90
6690;DHT22;3382;51.576;8.076;2023-03-01T01:03:48;-0.30;99.90
6690;DHT22;3382;51.576;8.076;2023-03-01T01:06:19;-0.40;99.90
6690;DHT22;3382;51.576;8.076;2023-03-01T01:08:46;-0.50;99.90
6690;DHT22;3382;51.576;8.076;2023-03-01T01:11:11;-0.50;99.90
6690;DHT22;3382;51.576;8.076;2023-03-01T01:13:38;-0.60;99.90
6690;DHT22;3382;51.576;8.076;2023-03-01T01:16:05;-0.60;99.90
6690;DHT22;3382;51.576;8.076;2023-03-01T01:18:31;-0.60;99.90
6690;DHT22;3382;51.576;8.076;2023-03-01T01:20:56;-0.50;99.90
6690;DHT22;3382;51.576;8.076;2023-03-01T01:23:22;-0.60;99.90
6690;DHT22;3382;51.576;8.076;2023-03-01T01:25:47;-0.60;99.90
6690;DHT22;3382;51.576;8.076;2023-03-01T01:28:13;-0.50;99.90
6690;DHT22;3382;51.576;8.076;2023-03-01T01:30:39;-0.60;99.90
6690;DHT22;3382;51.576;8.076;2023-03-01T01:33:04;-0.60;99.90
6690;DHT22;3382;51.576;8.076;2023-03-01T01:35:30;-0.70;99.90
6690;DHT22;3382;51.576;8.076;2023-03-01T01:37:55;-0.70;99.90
6690;DHT22;3382;51.576;8.076;2023-03-01T01:40:21;-0.70;99.90
6690;DHT22;3382;51.576;8.076;2023-03-01T01:42:47;-0.70;99.90
6690;DHT22;3382;51.576;8.076;2023-03-01T01:45:36;-0.70;99.90
6690;DHT22;3382;51.576;8.076;2023-03-01T01:48:09;-0.70;99.90
6690;DHT22;3382;51.576;8.076;2023-03-01T01:50:38;-0.80;99.90
6690;DHT22;3382;51.576;8.076;2023-03-01T01:53:12;-0.70;99.90
6690;DHT22;3382;51.576;8.076;2023-03-01T01:55:54;-0.70;99.90
6690;DHT22;3382;51.576;8.076;2023-03-01T01:58:23;-0.60;99.90
6690;DHT22;3382;51.576;8.076;2023-03-01T02:00:49;-0.10;99.90
6690;DHT22;3382;51.576;8.076;2023-03-01T02:03:20;-0.70;99.90
6690;DHT22;3382;51.576;8.076;2023-03-01T02:06:03;-0.80;99.90
6690;DHT22;3382;51.576;8.076;2023-03-01T02:08:32;-0.40;99.90
6690;DHT22;3382;51.576;8.076;2023-03-01T02:10:59;-0.80;99.90
6690;DHT22;3382;51.576;8.076;2023-03-01T02:13:26;-0.90;99.90
6690;DHT22;3382;51.576;8.076;2023-03-01T02:15:52;-0.80;99.90
6690;DHT22;3382;51.576;8.076;2023-03-01T02:18:20;-0.90;99.90
6690;DHT22;3382;51.576;8.076;2023-03-01T02:21:17;-1.00;99.90
6690;DHT22;3382;51.576;8.076;2023-03-01T02:23:46;-1.00;99.90
6690;DHT22;3382;51.576;8.076;2023-03-01T02:26:41;-1.10;99.90
6690;DHT22;3382;51.576;8.076;2023-03-01T02:29:08;-1.10;99.90
6690;DHT22;3382;51.576;8.076;2023-03-01T02:31:33;-1.10;99.90
6690;DHT22;3382;51.576;8.076;2023-03-01T02:34:23;-1.20;99.90
6690;DHT22;3382;51.576;8.076;2023-03-01T02:36:55;-1.20;99.90
6690;DHT22;3382;51.576;8.076;2023-03-01T02:39:46;-1.30;99.90
6690;DHT22;3382;51.576;8.076;2023-03-01T02:42:15;-1.20;99.90
6690;DHT22;3382;51.576;8.076;2023-03-01T02:44:42;-1.00;99.90
6690;DHT22;3382;51.576;8.076;2023-03-01T02:47:07;-1.20;99.90
6690;DHT22;3382;51.576;8.076;2023-03-01T02:49:36;-0.50;99.90
6690;DHT22;3382;51.576;8.076;2023-03-01T02:52:39;-1.20;99.90
6690;DHT22;3382;51.576;8.076;2023-03-01T02:55:10;-1.20;99.90
6690;DHT22;3382;51.576;8.076;2023-03-01T02:57:39;-1.20;99.90
6690;DHT22;3382;51.576;8.076;2023-03-01T03:00:13;-1.30;99.90
6690;DHT22;3382;51.576;8.076;2023-03-01T03:02:45;-1.30;99.90
6690;DHT22;3382;51.576;8.076;2023-03-01T03:05:21;-0.70;99.90
6690;DHT22;3382;51.576;8.076;2023-03-01T03:07:48;-1.20;99.90
6690;DHT22;3382;51.576;8.076;2023-03-01T03:10:23;-1.20;99.90
6690;DHT22;3382;51.576;8.076;2023-03-01T03:12:54;-1.20;99.90
6690;DHT22;3382;51.576;8.076;2023-03-01T03:15:21;-1.30;99.90
6690;DHT22;3382;51.576;8.076;2023-03-01T03:17:47;-1.30;99.90
6690;DHT22;3382;51.576;8.076;2023-03-01T03:20:16;-1.40;99.90
6690;DHT22;3382;51.576;8.076;2023-03-01T03:22:45;-1.30;99.90
6690;DHT22;3382;51.576;8.076;2023-03-01T03:25:11;-1.30;99.90
6690;DHT22;3382;51.576;8.076;2023-03-01T03:27:40;-1.20;99.90
6690;DHT22;3382;51.576;8.076;2023-03-01T03:30:07;-1.10;99.90
6690;DHT22;3382;51.576;8.076;2023-03-01T03:32:35;-1.20;99.90
6690;DHT22;3382;51.576;8.076;2023-03-01T03:35:03;-1.20;99.90
6690;DHT22;3382;51.576;8.076;2023-03-01T03:37:38;-1.20;99.90
6690;DHT22;3382;51.576;8.076;2023-03-01T03:40:23;-1.20;99.90
6690;DHT22;3382;51.576;8.076;2023-03-01T03:42:49;-1.30;99.90
6690;DHT22;3382;51.576;8.076;2023-03-01T03:45:16;-1.40;99.90
6690;DHT22;3382;51.576;8.076;2023-03-01T03:47:42;-1.40;99.90
6690;DHT22;3382;51.576;8.076;2023-03-01T03:50:09;-1.40;99.90
6690;DHT22;3382;51.576;8.076;2023-03-01T03:52:35;-1.40;99.90
6690;DHT22;3382;51.576;8.076;2023-03-01T03:55:00;-1.50;99.90
6690;DHT22;3382;51.576;8.076;2023-03-01T03:57:26;-1.60;99.90
6690;DHT22;3382;51.576;8.076;2023-03-01T03:59:51;-1.60;99.90
6690;DHT22;3382;51.576;8.076;2023-03-01T04:02:17;-1.60;99.90
6690;DHT22;3382;51.576;8.076;2023-03-01T04:04:48;-1.60;99.90
6690;DHT22;3382;51.576;8.076;2023-03-01T04:07:16;-1.60;99.90
6690;DHT22;3382;51.576;8.076;2023-03-01T04:09:42;-1.70;99.90
6690;DHT22;3382;51.576;8.076;2023-03-01T04:12:09;-1.80;99.90
6690;DHT22;3382;51.576;8.076;2023-03-01T04:14:34;-1.80;99.90
6690;DHT22;3382;51.576;8.076;2023-03-01T04:17:00;-1.50;99.90
6690;DHT22;3382;51.576;8.076;2023-03-01T04:19:26;-1.80;99.90
6690;DHT22;3382;51.576;8.076;2023-03-01T04:21:52;-1.70;99.90
6690;DHT22;3382;51.576;8.076;2023-03-01T04:24:18;-1.80;99.90
6690;DHT22;3382;51.576;8.076;2023-03-01T04:26:44;-1.30;99.90
6690;DHT22;3382;51.576;8.076;2023-03-01T04:29:09;-1.80;99.90
6690;DHT22;3382;51.576;8.076;2023-03-01T04:31:35;-1.80;99.90
6690;DHT22;3382;51.576;8.076;2023-03-01T04:34:01;-1.50;99.90
6690;DHT22;3382;51.576;8.076;2023-03-01T04:36:29;-1.30;99.90
6690;DHT22;3382;51.576;8.076;2023-03-01T04:38:55;-1.80;99.90
6690;DHT22;3382;51.576;8.076;2023-03-01T04:41:22;-1.90;99.90
6690;DHT22;3382;51.576;8.076;2023-03-01T04:43:48;-1.90;99.90
6690;DHT22;3382;51.576;8.076;2023-03-01T04:46:16;-1.60;99.90
6690;DHT22;3382;51.576;8.076;2023-03-01T04:48:43;-1.40;99.90
6690;DHT22;3382;51.576;8.076;2023-03-01T04:51:10;-2.00;99.90
6690;DHT22;3382;51.576;8.076;2023-03-01T04:53:39;-2.00;99.90
6690;DHT22;3382;51.576;8.076;2023-03-01T04:56:05;-2.00;99.90
6690;DHT22;3382;51.576;8.076;2023-03-01T04:58:31;-1.60;99.90
6690;DHT22;3382;51.576;8.076;2023-03-01T05:00:57;-1.90;99.90
6690;DHT22;3382;51.576;8.076;2023-03-01T05:03:22;-1.90;99.90
6690;DHT22;3382;51.576;8.076;2023-03-01T05:05:50;-1.90;99.90
6690;DHT22;3382;51.576;8.076;2023-03-01T05:08:16;-1.90;99.90
6690;DHT22;3382;51.576;8.076;2023-03-01T05:10:49;-1.90;99.90
6690;DHT22;3382;51.576;8.076;2023-03-01T05:13:15;-1.80;99.90
6690;DHT22;3382;51.576;8.076;2023-03-01T05:15:47;-1.80;99.90
6690;DHT22;3382;51.576;8.076;2023-03-01T05:18:13;-1.20;99.90
6690;DHT22;3382;51.576;8.076;2023-03-01T05:20:39;-1.80;99.90
6690;DHT22;3382;51.576;8.076;2023-03-01T05:23:05;-1.90;99.90
6690;DHT22;3382;51.576;8.076;2023-03-01T05:25:34;-1.90;99.90
6690;DHT22;3382;51.576;8.076;2023-03-01T05:28:02;-1.40;99.90
6690;DHT22;3382;51.576;8.076;2023-03-01T05:30:31;1.40;99.90
6690;DHT22;3382;51.576;8.076;2023-03-01T05:32:56;0.60;99.90
6690;DHT22;3382;51.576;8.076;2023-03-01T05:35:22;-0.10;99.90
6690;DHT22;3382;51.576;8.076;2023-03-01T05:37:49;-0.70;99.90
6690;DHT22;3382;51.576;8.076;2023-03-01T05:40:19;-0.90;99.90
6690;DHT22;3382;51.576;8.076;2023-03-01T05:42:47;-1.00;99.90
6690;DHT22;3382;51.576;8.076;2023-03-01T05:45:15;-1.10;99.90
6690;DHT22;3382;51.576;8.076;2023-03-01T05:47:42;-1.10;99.90
6690;DHT22;3382;51.576;8.076;2023-03-01T05:50:11;-1.20;99.90
6690;DHT22;3382;51.576;8.076;2023-03-01T05:52:37;-1.30;99.90
6690;DHT22;3382;51.576;8.076;2023-03-01T05:55:03;-1.00;99.90
6690;DHT22;3382;51.576;8.076;2023-03-01T05:57:29;-1.00;99.90
6690;DHT22;3382;51.576;8.076;2023-03-01T05:59:55;-1.10;99.90
6690;DHT22;3382;51.576;8.076;2023-03-01T06:02:20;-0.40;99.90
6690;DHT22;3382;51.576;8.076;2023-03-01T06:04:46;-1.00;99.90
6690;DHT22;3382;51.576;8.076;2023-03-01T06:07:12;-0.90;99.90
6690;DHT22;3382;51.576;8.076;2023-03-01T06:09:37;-0.80;99.90
6690;DHT22;3382;51.576;8.076;2023-03-01T06:12:03;-0.70;99.90
6690;DHT22;3382;51.576;8.076;2023-03-01T06:14:29;-0.70;99.90
6690;DHT22;3382;51.576;8.076;2023-03-01T06:16:54;-0.60;99.90
6690;DHT22;3382;51.576;8.076;2023-03-01T06:19:20;-0.80;99.90
6690;DHT22;3382;51.576;8.076;2023-03-01T06:21:45;-1.00;99.90
6690;DHT22;3382;51.576;8.076;2023-03-01T06:24:11;-0.60;99.90
6690;DHT22;3382;51.576;8.076;2023-03-01T06:26:36;-0.70;99.90
6690;DHT22;3382;51.576;8.076;2023-03-01T06:29:02;-1.30;99.90
6690;DHT22;3382;51.576;8.076;2023-03-01T06:31:27;-0.80;99.90
6690;DHT22;3382;51.576;8.076;2023-03-01T06:33:54;-0.20;99.90
6690;DHT22;3382;51.576;8.076;2023-03-01T06:36:19;1.10;99.90
6690;DHT22;3382;51.576;8.076;2023-03-01T06:38:46;2.40;99.90
6690;DHT22;3382;51.576;8.076;2023-03-01T06:41:12;3.70;99.90
6690;DHT22;3382;51.576;8.076;2023-03-01T06:43:37;5.40;99.90
6690;DHT22;3382;51.576;8.076;2023-03-01T06:46:05;4.20;99.90
6690;DHT22;3382;51.576;8.076;2023-03-01T06:48:32;2.40;99.90
6690;DHT22;3382;51.576;8.076;2023-03-01T06:51:00;1.20;99.90
6690;DHT22;3382;51.576;8.076;2023-03-01T06:53:29;0.50;99.90
6690;DHT22;3382;51.576;8.076;2023-03-01T06:55:58;0.00;99.90
6690;DHT22;3382;51.576;8.076;2023-03-01T06:58:25;-0.30;99.90
6690;DHT22;3382;51.576;8.076;2023-03-01T07:00:51;-0.80;99.90
6690;DHT22;3382;51.576;8.076;2023-03-01T07:03:17;-0.60;99.90
6690;DHT22;3382;51.576;8.076;2023-03-01T07:05:43;-0.70;99.90
6690;DHT22;3382;51.576;8.076;2023-03-01T07:08:09;-0.20;99.90
6690;DHT22;3382;51.576;8.076;2023-03-01T07:10:35;-0.90;99.90
6690;DHT22;3382;51.576;8.076;2023-03-01T07:13:01;-0.90;99.90
6690;DHT22;3382;51.576;8.076;2023-03-01T07:15:27;-0.80;99.90
6690;DHT22;3382;51.576;8.076;2023-03-01T07:17:53;-0.70;99.90
6690;DHT22;3382;51.576;8.076;2023-03-01T07:20:20;-0.60;99.90
6690;DHT22;3382;51.576;8.076;2023-03-01T07:22:51;-0.50;99.90
6690;DHT22;3382;51.576;8.076;2023-03-01T07:25:17;0.10;99.90
6690;DHT22;3382;51.576;8.076;2023-03-01T07:27:42;-0.40;99.90
6690;DHT22;3382;51.576;8.076;2023-03-01T07:30:09;-0.20;99.90
6690;DHT22;3382;51.576;8.076;2023-03-01T07:32:35;-0.10;99.90
6690;DHT22;3382;51.576;8.076;2023-03-01T07:35:01;0.50;99.90
6690;DHT22;3382;51.576;8.076;2023-03-01T07:37:26;0.30;99.90
6690;DHT22;3382;51.576;8.076;2023-03-01T07:39:52;0.60;99.90
6690;DHT22;3382;51.576;8.076;2023-03-01T07:42:17;0.90;99.90
6690;DHT22;3382;51.576;8.076;2023-03-01T07:44:43;1.20;99.90
6690;DHT22;3382;51.576;8.076;2023-03-01T07:47:09;1.50;99.90
6690;DHT22;3382;51.576;8.076;2023-03-01T07:49:34;1.80;99.90
6690;DHT22;3382;51.576;8.076;2023-03-01T07:52:00;2.10;99.90
6690;DHT22;3382;51.576;8.076;2023-03-01T07:54:26;2.30;99.90
6690;DHT22;3382;51.576;8.076;2023-03-01T07:56:51;2.60;99.90
6690;DHT22;3382;51.576;8.076;2023-03-01T07:59:17;3.00;99.90
6690;DHT22;3382;51.576;8.076;2023-03-01T08:01:43;3.20;99.90
6690;DHT22;3382;51.576;8.076;2023-03-01T08:04:08;3.50;99.90
6690;DHT22;3382;51.576;8.076;2023-03-01T08:06:35;3.80;99.90
6690;DHT22;3382;51.576;8.076;2023-03-01T08:09:01;4.10;99.90
6690;DHT22;3382;51.576;8.076;2023-03-01T08:11:27;4.40;99.90
6690;DHT22;3382;51.576;8.076;2023-03-01T08:13:55;4.60;99.90
6690;DHT22;3382;51.576;8.076;2023-03-01T08:16:22;4.90;99.90
6690;DHT22;3382;51.576;8.076;2023-03-01T08:18:48;5.10;99.90
6690;DHT22;3382;51.576;8.076;2023-03-01T08:21:16;5.40;99.90
6690;DHT22;3382;51.576;8.076;2023-03-01T08:23:43;5.70;99.90
6690;DHT22;3382;51.576;8.076;2023-03-01T08:26:19;5.80;99.90
6690;DHT22;3382;51.576;8.076;2023-03-01T08:28:47;5.90;99.90
6690;DHT22;3382;51.576;8.076;2023-03-01T08:31:34;5.90;99.90
6690;DHT22;3382;51.576;8.076;2023-03-01T08:34:06;6.10;99.90
6690;DHT22;3382;51.576;8.076;2023-03-01T08:36:37;6.10;99.90
6690;DHT22;3382;51.576;8.076;2023-03-01T08:39:04;6.20;99.90
6690;DHT22;3382;51.576;8.076;2023-03-01T08:41:30;6.40;99.90
6690;DHT22;3382;51.576;8.076;2023-03-01T08:43:56;6.50;99.90
6690;DHT22;3382;51.576;8.076;2023-03-01T08:46:27;6.80;99.90
6690;DHT22;3382;51.576;8.076;2023-03-01T08:48:53;6.90;99.90
6690;DHT22;3382;51.576;8.076;2023-03-01T08:51:20;6.90;99.90
6690;DHT22;3382;51.576;8.076;2023-03-01T08:53:46;7.00;99.90
6690;DHT22;3382;51.576;8.076;2023-03-01T08:56:13;6.90;99.90
6690;DHT22;3382;51.576;8.076;2023-03-01T08:58:39;6.90;99.90
6690;DHT22;3382;51.576;8.076;2023-03-01T09:01:11;6.60;99.90
6690;DHT22;3382;51.576;8.076;2023-03-01T09:03:37;6.40;99.90
6690;DHT22;3382;51.576;8.076;2023-03-01T09:06:04;6.20;99.90
6690;DHT22;3382;51.576;8.076;2023-03-01T09:08:30;6.20;99.90
6690;DHT22;3382;51.576;8.076;2023-03-01T09:10:56;6.20;99.90
6690;DHT22;3382;51.576;8.076;2023-03-01T09:13:22;6.60;99.90
6690;DHT22;3382;51.576;8.076;2023-03-01T09:15:51;6.80;99.90
6690;DHT22;3382;51.576;8.076;2023-03-01T09:18:17;6.70;99.90
6690;DHT22;3382;51.576;8.076;2023-03-01T09:20:42;6.70;99.90
6690;DHT22;3382;51.576;8.076;2023-03-01T09:23:08;6.60;99.90
6690;DHT22;3382;51.576;8.076;2023-03-01T09:25:34;6.40;99.90
6690;DHT22;3382;51.576;8.076;2023-03-01T09:28:00;6.40;99.90
6690;DHT22;3382;51.576;8.076;2023-03-01T09:30:25;6.50;99.90
6690;DHT22;3382;51.576;8.076;2023-03-01T09:32:51;6.80;99.90
6690;DHT22;3382;51.576;8.076;2023-03-01T09:35:17;6.60;99.90
6690;DHT22;3382;51.576;8.076;2023-03-01T09:37:45;6.40;99.90
6690;DHT22;3382;51.576;8.076;2023-03-01T09:40:20;6.30;99.90
6690;DHT22;3382;51.576;8.076;2023-03-01T09:42:55;6.20;99.90
6690;DHT22;3382;51.576;8.076;2023-03-01T09:45:35;6.20;99.90
6690;DHT22;3382;51.576;8.076;2023-03-01T09:48:03;6.30;99.90
6690;DHT22;3382;51.576;8.076;2023-03-01T09:50:34;6.50;99.90
6690;DHT22;3382;51.576;8.076;2023-03-01T09:53:15;6.50;99.90
6690;DHT22;3382;51.576;8.076;2023-03-01T09:55:56;6.60;99.90
6690;DHT22;3382;51.576;8.076;2023-03-01T09:58:37;6.60;99.90
6690;DHT22;3382;51.576;8.076;2023-03-01T10:06:38;6.60;99.90
6690;DHT22;3382;51.576;8.076;2023-03-01T10:09:16;6.60;99.90
6690;DHT22;3382;51.576;8.076;2023-03-01T10:11:47;6.50;99.90
6690;DHT22;3382;51.576;8.076;2023-03-01T10:16:55;6.60;99.90
6690;DHT22;3382;51.576;8.076;2023-03-01T10:19:25;6.50;99.90
6690;DHT22;3382;51.576;8.076;2023-03-01T10:21:53;6.50;99.90
6690;DHT22;3382;51.576;8.076;2023-03-01T10:24:19;6.50;99.90
6690;DHT22;3382;51.576;8.076;2023-03-01T10:26:57;6.40;99.90
6690;DHT22;3382;51.576;8.076;2023-03-01T10:29:30;6.30;99.90
6690;DHT22;3382;51.576;8.076;2023-03-01T10:31:57;6.20;99.90
6690;DHT22;3382;51.576;8.076;2023-03-01T10:34:32;6.30;99.90
6690;DHT22;3382;51.576;8.076;2023-03-01T10:39:36;6.40;99.90
6690;DHT22;3382;51.576;8.076;2023-03-01T10:42:16;6.30;99.90
6690;DHT22;3382;51.576;8.076;2023-03-01T10:44:48;6.30;99.90
6690;DHT22;3382;51.576;8.076;2023-03-01T10:47:23;6.30;99.90
6690;DHT22;3382;51.576;8.076;2023-03-01T10:50:01;6.30;99.90
6690;DHT22;3382;51.576;8.076;2023-03-01T10:52:35;6.50;99.90
6690;DHT22;3382;51.576;8.076;2023-03-01T10:55:30;6.60;99.90
6690;DHT22;3382;51.576;8.076;2023-03-01T11:03:35;6.40;99.90
6690;DHT22;3382;51.576;8.076;2023-03-01T11:08:47;6.50;99.90
6690;DHT22;3382;51.576;8.076;2023-03-01T11:11:33;6.50;99.90
6690;DHT22;3382;51.576;8.076;2023-03-01T11:14:15;6.50;99.90
6690;DHT22;3382;51.576;8.076;2023-03-01T11:16:44;6.60;99.90
6690;DHT22;3382;51.576;8.076;2023-03-01T11:24:14;6.70;99.90
6690;DHT22;3382;51.576;8.076;2023-03-01T11:26:44;6.60;99.90
6690;DHT22;3382;51.576;8.076;2023-03-01T11:29:50;6.50;99.90
6690;DHT22;3382;51.576;8.076;2023-03-01T11:32:10;6.40;99.90
6690;DHT22;3382;51.576;8.076;2023-03-01T11:37:16;6.60;99.90
6690;DHT22;3382;51.576;8.076;2023-03-01T11:39:50;6.60;99.90
6690;DHT22;3382;51.576;8.076;2023-03-01T11:42:29;6.50;99.90
6690;DHT22;3382;51.576;8.076;2023-03-01T11:45:02;6.40;99.90
6690;DHT22;3382;51.576;8.076;2023-03-01T11:58:45;6.50;99.90
6690;DHT22;3382;51.576;8.076;2023-03-01T12:01:37;6.70;99.90
6690;DHT22;3382;51.576;8.076;2023-03-01T12:04:36;6.50;99.90
6690;DHT22;3382;51.576;8.076;2023-03-01T12:07:20;7.30;99.90
6690;DHT22;3382;51.576;8.076;2023-03-01T12:12:43;7.40;99.90
6690;DHT22;3382;51.576;8.076;2023-03-01T12:21:11;6.60;99.90
6690;DHT22;3382;51.576;8.076;2023-03-01T12:26:35;6.60;99.90
6690;DHT22;3382;51.576;8.076;2023-03-01T12:29:16;6.50;99.90
6690;DHT22;3382;51.576;8.076;2023-03-01T12:51:37;6.60;99.90
6690;DHT22;3382;51.576;8.076;2023-03-01T12:54:28;6.70;99.90
6690;DHT22;3382;51.576;8.076;2023-03-01T12:57:01;6.80;99.90
6690;DHT22;3382;51.576;8.076;2023-03-01T12:59:37;6.80;99.90
6690;DHT22;3382;51.576;8.076;2023-03-01T13:07:49;6.80;99.90
6690;DHT22;3382;51.576;8.076;2023-03-01T13:12:47;6.90;99.90
6690;DHT22;3382;51.576;8.076;2023-03-01T13:17:51;6.80;99.90
6690;DHT22;3382;51.576;8.076;2023-03-01T13:20:19;6.70;99.90
6690;DHT22;3382;51.576;8.076;2023-03-01T13:22:46;6.70;99.90
6690;DHT22;3382;51.576;8.076;2023-03-01T13:25:19;6.90;99.90
6690;DHT22;3382;51.576;8.076;2023-03-01T13:27:46;7.00;99.90
6690;DHT22;3382;51.576;8.076;2023-03-01T13:35:58;7.00;99.90
6690;DHT22;3382;51.576;8.076;2023-03-01T13:41:17;7.10;99.90
6690;DHT22;3382;51.576;8.076;2023-03-01T13:46:51;7.20;99.90
6690;DHT22;3382;51.576;8.076;2023-03-01T13:49:21;7.30;99.90
6690;DHT22;3382;51.576;8.076;2023-03-01T13:51:48;7.30;99.90
6690;DHT22;3382;51.576;8.076;2023-03-01T13:54:17;7.30;99.90
6690;DHT22;3382;51.576;8.076;2023-03-01T13:56:45;7.20;99.90
6690;DHT22;3382;51.576;8.076;2023-03-01T13:59:19;7.20;99.90
6690;DHT22;3382;51.576;8.076;2023-03-01T14:01:59;7.10;99.90
6690;DHT22;3382;51.576;8.076;2023-03-01T14:04:29;7.10;99.90
6690;DHT22;3382;51.576;8.076;2023-03-01T14:09:41;7.20;99.90
6690;DHT22;3382;51.576;8.076;2023-03-01T14:12:39;7.20;99.90
6690;DHT22;3382;51.576;8.076;2023-03-01T14:15:14;7.30;99.90
6690;DHT22;3382;51.576;8.076;2023-03-01T14:20:18;7.40;99.90
6690;DHT22;3382;51.576;8.076;2023-03-01T14:22:46;7.40;99.90
6690;DHT22;3382;51.576;8.076;2023-03-01T14:25:23;7.40;99.90
6690;DHT22;3382;51.576;8.076;2023-03-01T14:30:34;7.30;99.90
6690;DHT22;3382;51.576;8.076;2023-03-01T14:33:04;7.30;99.90
6690;DHT22;3382;51.576;8.076;2023-03-01T14:35:33;7.30;99.50
6690;DHT22;3382;51.576;8.076;2023-03-01T14:38:00;7.40;99.70
6690;DHT22;3382;51.576;8.076;2023-03-01T14:40:39;7.80;99.40
6690;DHT22;3382;51.576;8.076;2023-03-01T14:43:13;7.40;99.20
6690;DHT22;3382;51.576;8.076;2023-03-01T14:45:47;7.50;99.10
6690;DHT22;3382;51.576;8.076;2023-03-01T14:48:13;7.50;98.50
6690;DHT22;3382;51.576;8.076;2023-03-01T14:50:41;7.40;98.70
6690;DHT22;3382;51.576;8.076;2023-03-01T14:53:18;7.50;99.60
6690;DHT22;3382;51.576;8.076;2023-03-01T14:56:00;7.70;99.90
6690;DHT22;3382;51.576;8.076;2023-03-01T14:58:31;7.80;99.90
6690;DHT22;3382;51.576;8.076;2023-03-01T15:01:02;8.70;99.90
6690;DHT22;3382;51.576;8.076;2023-03-01T15:03:45;9.50;99.90
6690;DHT22;3382;51.576;8.076;2023-03-01T15:06:15;9.70;99.90
6690;DHT22;3382;51.576;8.076;2023-03-01T15:08:45;8.70;99.90
6690;DHT22;3382;51.576;8.076;2023-03-01T15:11:28;8.20;99.90
6690;DHT22;3382;51.576;8.076;2023-03-01T15:13:53;8.00;99.50
6690;DHT22;3382;51.576;8.076;2023-03-01T15:16:39;8.00;99.40
6690;DHT22;3382;51.576;8.076;2023-03-01T15:19:07;7.90;98.30
6690;DHT22;3382;51.576;8.076;2023-03-01T15:21:34;7.70;98.00
6690;DHT22;3382;51.576;8.076;2023-03-01T15:26:49;7.20;97.60
6690;DHT22;3382;51.576;8.076;2023-03-01T15:29:22;7.20;97.70
6690;DHT22;3382;51.576;8.076;2023-03-01T15:34:23;7.10;98.20
6690;DHT22;3382;51.576;8.076;2023-03-01T15:36:51;7.10;98.00
6690;DHT22;3382;51.576;8.076;2023-03-01T15:39:41;7.10;97.70
6690;DHT22;3382;51.576;8.076;2023-03-01T15:47:48;7.00;97.90
6690;DHT22;3382;51.576;8.076;2023-03-01T15:50:27;7.00;97.70
6690;DHT22;3382;51.576;8.076;2023-03-01T15:52:53;6.90;97.80
6690;DHT22;3382;51.576;8.076;2023-03-01T15:55:25;6.90;97.50
6690;DHT22;3382;51.576;8.076;2023-03-01T15:58:13;6.90;97.50
6690;DHT22;3382;51.576;8.076;2023-03-01T16:00:40;6.90;97.50
6690;DHT22;3382;51.576;8.076;2023-03-01T16:03:06;7.00;97.50
6690;DHT22;3382;51.576;8.076;2023-03-01T16:05:35;6.90;97.70
6690;DHT22;3382;51.576;8.076;2023-03-01T16:08:01;7.00;98.00
6690;DHT22;3382;51.576;8.076;2023-03-01T16:10:28;6.90;97.30
6690;DHT22;3382;51.576;8.076;2023-03-01T16:12:54;6.90;97.70
6690;DHT22;3382;51.576;8.076;2023-03-01T16:17:45;7.00;97.20
6690;DHT22;3382;51.576;8.076;2023-03-01T16:20:12;7.00;97.00
6690;DHT22;3382;51.576;8.076;2023-03-01T16:22:41;7.00;97.40
6690;DHT22;3382;51.576;8.076;2023-03-01T16:25:09;7.20;97.50
6690;DHT22;3382;51.576;8.076;2023-03-01T16:27:35;7.30;97.20
6690;DHT22;3382;51.576;8.076;2023-03-01T16:30:00;7.50;97.20
6690;DHT22;3382;51.576;8.076;2023-03-01T16:32:26;7.70;97.00
6690;DHT22;3382;51.576;8.076;2023-03-01T16:34:51;7.60;96.90
6690;DHT22;3382;51.576;8.076;2023-03-01T16:37:17;7.60;96.90
6690;DHT22;3382;51.576;8.076;2023-03-01T16:39:44;7.60;97.20
6690;DHT22;3382;51.576;8.076;2023-03-01T16:42:10;7.60;97.10
6690;DHT22;3382;51.576;8.076;2023-03-01T16:44:35;7.50;97.20
6690;DHT22;3382;51.576;8.076;2023-03-01T16:47:01;7.50;97.30
6690;DHT22;3382;51.576;8.076;2023-03-01T16:49:26;7.50;97.20
6690;DHT22;3382;51.576;8.076;2023-03-01T16:51:53;7.50;97.20
6690;DHT22;3382;51.576;8.076;2023-03-01T16:54:19;7.50;97.20
6690;DHT22;3382;51.576;8.076;2023-03-01T16:56:45;7.40;97.20
6690;DHT22;3382;51.576;8.076;2023-03-01T16:59:10;7.40;98.30
6690;DHT22;3382;51.576;8.076;2023-03-01T17:01:36;7.20;97.30
6690;DHT22;3382;51.576;8.076;2023-03-01T17:04:06;7.00;97.70
6690;DHT22;3382;51.576;8.076;2023-03-01T17:06:32;7.00;99.90
6690;DHT22;3382;51.576;8.076;2023-03-01T17:09:03;7.10;99.80
6690;DHT22;3382;51.576;8.076;2023-03-01T17:11:29;6.80;99.50
6690;DHT22;3382;51.576;8.076;2023-03-01T17:13:54;6.70;99.70
6690;DHT22;3382;51.576;8.076;2023-03-01T17:16:20;6.60;99.80
6690;DHT22;3382;51.576;8.076;2023-03-01T17:18:47;6.50;99.90
6690;DHT22;3382;51.576;8.076;2023-03-01T17:21:13;6.40;99.90
6690;DHT22;3382;51.576;8.076;2023-03-01T17:23:41;6.30;99.90
6690;DHT22;3382;51.576;8.076;2023-03-01T17:26:08;6.30;99.90
6690;DHT22;3382;51.576;8.076;2023-03-01T17:28:35;6.20;99.90
6690;DHT22;3382;51.576;8.076;2023-03-01T17:31:01;6.20;99.90
6690;DHT22;3382;51.576;8.076;2023-03-01T17:33:28;6.00;99.90
6690;DHT22;3382;51.576;8.076;2023-03-01T17:35:57;6.00;99.90
6690;DHT22;3382;51.576;8.076;2023-03-01T17:38:23;5.90;99.90
6690;DHT22;3382;51.576;8.076;2023-03-01T17:40:48;6.20;99.90
6690;DHT22;3382;51.576;8.076;2023-03-01T17:43:16;6.40;99.90
6690;DHT22;3382;51.576;8.076;2023-03-01T17:45:42;6.10;99.90
6690;DHT22;3382;51.576;8.076;2023-03-01T17:48:12;6.00;99.90
6690;DHT22;3382;51.576;8.076;2023-03-01T17:50:38;5.80;99.90
6690;DHT22;3382;51.576;8.076;2023-03-01T17:53:08;5.70;99.90
6690;DHT22;3382;51.576;8.076;2023-03-01T17:55:39;5.70;99.90
6690;DHT22;3382;51.576;8.076;2023-03-01T17:58:05;5.60;99.90
6690;DHT22;3382;51.576;8.076;2023-03-01T18:00:32;5.80;99.90
6690;DHT22;3382;51.576;8.076;2023-03-01T18:02:59;5.80;99.90
6690;DHT22;3382;51.576;8.076;2023-03-01T18:05:24;5.70;99.90
6690;DHT22;3382;51.576;8.076;2023-03-01T18:07:51;5.70;99.90
6690;DHT22;3382;51.576;8.076;2023-03-01T18:10:18;5.70;99.90
6690;DHT22;3382;51.576;8.076;2023-03-01T18:12:44;5.60;99.90
6690;DHT22;3382;51.576;8.076;2023-03-01T18:15:10;5.70;99.90
6690;DHT22;3382;51.576;8.076;2023-03-01T18:17:36;5.40;99.90
6690;DHT22;3382;51.576;8.076;2023-03-01T18:20:03;5.30;99.90